Time;durP1;ratioP1;P1;durP2;ratioP2;P2;SDS_P1;SDS_P2;PMS_P1;PMS_P2;Temp;Humidity;BMP_temperature;BMP_pressure;BME280_temperature;BME280_humidity;BME280_pressure;Samples;Min_cycle;Max_cycle;Signal;HPM_P1;HPM_P2
2022/12/22 03:27:07;;;;;;;46.33;18.90;;;2.50;99.90;;;;;;4427032;28;658165;-72
2022/12/22 03:29:55;;;;;;;47.83;19.30;;;2.50;99.90;;;;;;4457267;28;657077;-72
2022/12/22 03:32:43;;;;;;;43.40;18.17;;;2.50;99.90;;;;;;4419937;28;658298;-72
2022/12/22 03:35:30;;;;;;;39.90;18.40;;;2.60;99.90;;;;;;4442913;28;657660;-72
2022/12/22 03:38:18;;;;;;;46.63;18.13;;;2.60;99.90;;;;;;4447660;27;660404;-71
2022/12/22 03:41:05;;;;;;;42.10;18.07;;;2.60;99.90;;;;;;4439788;28;658222;-72
2022/12/22 03:46:59;;;;;;;41.80;17.73;;;2.60;99.90;;;;;;4432466;28;657495;-72
2022/12/22 03:49:46;;;;;;;38.97;16.37;;;2.60;99.90;;;;;;4433999;27;658088;-71
2022/12/22 03:52:33;;;;;;;36.10;15.93;;;2.60;99.90;;;;;;4448739;28;657956;-71
2022/12/22 03:55:20;;;;;;;44.43;17.90;;;2.60;99.90;;;;;;4423719;28;657860;-72
2022/12/22 03:58:08;;;;;;;49.73;18.67;;;2.60;99.90;;;;;;4447292;28;658810;-71
2022/12/22 04:01:05;;;;;;;42.97;17.83;;;2.50;99.90;;;;;;4437424;28;657551;-71
2022/12/22 04:03:53;;;;;;;39.30;17.07;;;2.40;99.90;;;;;;4422913;28;657644;-71
2022/12/22 04:06:40;;;;;;;37.97;16.03;;;2.40;99.90;;;;;;4425446;28;657851;-71
2022/12/22 04:09:28;;;;;;;41.37;17.67;;;2.30;99.90;;;;;;4449690;28;657856;-71
2022/12/22 04:15:20;;;;;;;44.20;18.47;;;2.20;99.90;;;;;;4414137;28;657569;-71
2022/12/22 04:18:07;;;;;;;47.73;19.20;;;2.20;99.90;;;;;;4443534;28;658190;-71
2022/12/22 04:20:57;;;;;;;47.90;19.80;;;2.10;99.90;;;;;;4446666;27;657905;-71
2022/12/22 04:23:44;;;;;;;43.53;19.00;;;2.10;99.90;;;;;;4446316;28;657620;-71
2022/12/22 04:26:31;;;;;;;45.53;19.70;;;2.10;99.90;;;;;;4421777;28;657450;-72
2022/12/22 04:29:18;;;;;;;50.90;21.23;;;2.10;99.90;;;;;;4454873;28;658748;-71
2022/12/22 04:32:05;;;;;;;53.60;22.67;;;2.10;99.90;;;;;;4431903;28;658127;-71
2022/12/22 04:34:53;;;;;;;52.87;21.77;;;2.10;99.90;;;;;;4449486;28;658750;-72
2022/12/22 04:37:42;;;;;;;53.57;21.93;;;2.00;99.90;;;;;;4431923;28;658125;-71
2022/12/22 04:40:29;;;;;;;47.27;20.03;;;2.00;99.90;;;;;;4448887;28;657364;-72
2022/12/22 04:43:16;;;;;;;48.50;20.80;;;2.00;99.90;;;;;;4422431;27;657920;-71
2022/12/22 04:46:04;;;;;;;51.57;21.07;;;2.00;99.90;;;;;;4448928;28;658629;-71
2022/12/22 04:48:51;;;;;;;50.80;21.90;;;2.00;99.90;;;;;;4435086;27;658162;-71
2022/12/22 04:51:38;;;;;;;54.17;22.60;;;2.00;99.90;;;;;;4453832;28;658434;-72
2022/12/22 04:54:27;;;;;;;52.08;20.85;;;1.90;99.90;;;;;;4435165;28;657842;-71
2022/12/22 04:57:14;;;;;;;315.83;57.43;;;1.80;99.90;;;;;;4448639;28;657081;-71
2022/12/22 05:00:01;;;;;;;154.03;41.73;;;1.80;99.90;;;;;;4426160;28;658561;-71
2022/12/22 05:02:48;;;;;;;162.80;37.87;;;1.80;99.90;;;;;;4446442;28;659081;-71
2022/12/22 05:05:35;;;;;;;111.10;31.37;;;1.80;99.90;;;;;;4430733;28;659155;-71
2022/12/22 05:08:23;;;;;;;102.00;30.90;;;1.70;99.90;;;;;;4452750;28;659171;-71
2022/12/22 05:11:12;;;;;;;89.25;27.80;;;1.70;99.90;;;;;;4438898;27;658885;-71
2022/12/22 05:13:59;;;;;;;72.47;24.43;;;1.60;99.90;;;;;;4453033;28;657135;-71
2022/12/22 05:16:46;;;;;;;67.37;24.53;;;1.50;99.90;;;;;;4435098;28;658009;-71
2022/12/22 05:19:34;;;;;;;57.53;22.90;;;1.50;99.90;;;;;;4449341;28;658622;-71
2022/12/22 05:22:21;;;;;;;61.53;22.67;;;1.50;99.90;;;;;;4435248;28;657841;-71
2022/12/22 05:25:09;;;;;;;60.25;21.83;;;1.50;99.90;;;;;;4459904;28;658183;-71
2022/12/22 05:27:58;;;;;;;57.47;20.93;;;1.40;99.90;;;;;;4441251;28;658195;-71
2022/12/22 05:30:45;;;;;;;51.53;20.53;;;1.40;99.90;;;;;;4440919;28;658197;-71
2022/12/22 05:33:32;;;;;;;52.73;20.03;;;1.40;99.90;;;;;;4457528;28;658068;-72
2022/12/22 05:36:20;;;;;;;48.97;20.90;;;1.30;99.90;;;;;;4453189;28;657901;-72
2022/12/22 05:39:08;;;;;;;50.00;19.90;;;1.40;99.90;;;;;;4457095;28;657934;-71
2022/12/22 05:41:55;;;;;;;35.57;15.23;;;1.40;99.90;;;;;;4451487;27;658206;-71
2022/12/22 05:44:44;;;;;;;38.43;17.57;;;1.70;99.90;;;;;;4460441;27;658353;-71
2022/12/22 05:47:31;;;;;;;37.80;18.40;;;1.90;99.90;;;;;;4431594;28;657389;-71
2022/12/22 05:50:20;;;;;;;46.40;19.17;;;2.00;99.90;;;;;;4452090;28;658659;-71
2022/12/22 05:53:07;;;;;;;47.17;20.80;;;2.10;99.90;;;;;;4428583;27;657658;-71
2022/12/22 05:55:54;;;;;;;46.30;19.73;;;2.20;99.90;;;;;;4456395;28;657730;-71
2022/12/22 05:58:41;;;;;;;42.93;20.13;;;2.20;99.90;;;;;;4431139;28;657839;-71
2022/12/22 06:01:30;;;;;;;42.43;19.53;;;2.20;99.90;;;;;;4460320;28;658094;-71
2022/12/22 06:04:17;;;;;;;41.20;19.83;;;2.20;99.90;;;;;;4428187;28;658470;-71
2022/12/22 06:07:04;;;;;;;40.77;19.20;;;2.20;99.90;;;;;;4454853;28;657501;-71
2022/12/22 06:09:52;;;;;;;51.30;21.83;;;2.20;99.90;;;;;;4435397;28;658196;-71
2022/12/22 06:12:39;;;;;;;44.17;20.53;;;2.10;99.90;;;;;;4456660;28;657948;-71
2022/12/22 06:15:26;;;;;;;47.50;20.73;;;2.10;99.90;;;;;;4428126;28;657692;-71
2022/12/22 06:18:15;;;;;;;52.10;20.67;;;2.20;99.90;;;;;;4455610;28;658009;-71
2022/12/22 06:21:02;;;;;;;45.27;19.37;;;2.30;99.90;;;;;;4429284;28;658897;-71
2022/12/22 06:23:49;;;;;;;50.70;22.70;;;2.30;99.90;;;;;;4445698;28;658950;-71
2022/12/22 06:26:37;;;;;;;43.87;21.40;;;2.40;99.90;;;;;;4432507;28;657849;-71
2022/12/22 06:29:24;;;;;;;51.50;23.10;;;2.30;99.90;;;;;;4459030;28;657564;-71
2022/12/22 06:32:11;;;;;;;57.37;26.13;;;2.20;99.90;;;;;;4429591;28;657640;-70
2022/12/22 06:35:00;;;;;;;143.83;60.63;;;2.10;99.90;;;;;;4455235;28;657214;-70
2022/12/22 06:37:47;;;;;;;89.40;40.97;;;2.00;99.90;;;;;;4432003;28;659536;-70
2022/12/22 06:40:34;;;;;;;69.83;29.30;;;1.90;99.90;;;;;;4453952;28;657050;-70
2022/12/22 06:43:20;;;;;;;84.90;29.73;;;2.00;99.90;;;;;;4430351;28;657972;-70
2022/12/22 06:46:08;;;;;;;65.60;27.63;;;2.00;99.90;;;;;;4449507;28;658542;-70
2022/12/22 06:48:55;;;;;;;68.40;29.63;;;1.90;99.90;;;;;;4451565;27;657850;-70
2022/12/22 06:51:44;;;;;;;70.00;30.47;;;1.90;99.90;;;;;;4454220;28;658389;-70
2022/12/22 06:54:31;;;;;;;52.20;25.03;;;1.90;99.90;;;;;;4422623;27;657910;-70
2022/12/22 06:57:18;;;;;;;48.70;22.37;;;1.90;99.90;;;;;;4454006;27;658177;-70
2022/12/22 07:00:07;;;;;;;52.93;23.40;;;2.00;99.90;;;;;;4427216;27;657893;-70
2022/12/22 07:02:54;;;;;;;42.77;21.13;;;1.80;99.90;;;;;;4456157;27;657200;-70
2022/12/22 07:05:41;;;;;;;47.50;21.73;;;1.90;99.90;;;;;;4431813;28;657641;-70
2022/12/22 07:08:30;;;;;;;43.33;20.37;;;2.00;99.90;;;;;;4449530;27;658863;-70
2022/12/22 07:11:17;;;;;;;47.38;20.23;;;2.00;99.90;;;;;;4425951;27;658012;-70
2022/12/22 07:14:04;;;;;;;48.40;21.67;;;1.90;99.90;;;;;;4454183;28;657381;-70
2022/12/22 07:16:52;;;;;;;62.80;22.27;;;1.90;99.90;;;;;;4431484;27;657958;-70
2022/12/22 07:19:39;;;;;;;45.83;19.90;;;2.00;99.90;;;;;;4447708;28;657707;-70
2022/12/22 07:22:26;;;;;;;44.30;21.40;;;2.10;99.90;;;;;;4428932;27;657270;-70
2022/12/22 07:25:15;;;;;;;61.33;30.43;;;2.20;99.90;;;;;;4454245;27;658283;-70
2022/12/22 07:28:02;;;;;;;59.78;30.50;;;2.20;99.90;;;;;;4430104;28;658532;-69
2022/12/22 07:30:50;;;;;;;48.60;23.10;;;2.20;99.90;;;;;;4456248;27;656835;-71
2022/12/22 07:33:37;;;;;;;44.00;22.40;;;2.00;99.90;;;;;;4430057;28;657917;-70
2022/12/22 07:36:24;;;;;;;44.10;19.57;;;2.20;99.90;;;;;;4449874;27;657598;-71
2022/12/22 07:39:11;;;;;;;43.53;20.73;;;2.30;99.90;;;;;;4426825;27;657754;-70
2022/12/22 07:45:06;;;;;;;50.53;21.80;;;2.70;99.90;;;;;;4440914;28;657968;-70
2022/12/22 07:47:58;;;;;;;47.17;22.55;;;2.70;99.90;;;;;;4449300;27;658910;-71
2022/12/22 07:50:45;;;;;;;48.67;23.17;;;3.00;99.90;;;;;;4411817;27;657617;-71
2022/12/22 07:53:32;;;;;;;70.33;34.73;;;3.20;99.90;;;;;;4437497;28;656992;-71
2022/12/22 07:56:19;;;;;;;68.30;30.83;;;3.40;99.90;;;;;;4426458;28;657139;-71
2022/12/22 07:59:08;;;;;;;68.57;32.63;;;3.50;99.90;;;;;;4410070;28;658581;-71
2022/12/22 08:01:55;;;;;;;91.47;40.47;;;3.60;99.90;;;;;;4404741;28;658122;-70
2022/12/22 08:04:43;;;;;;;71.97;34.80;;;3.80;99.90;;;;;;4423171;28;658528;-70
2022/12/22 08:07:31;;;;;;;79.77;36.83;;;4.00;99.90;;;;;;4424636;28;657291;-71
2022/12/22 08:10:18;;;;;;;111.30;49.03;;;4.10;99.90;;;;;;4429755;28;657648;-70
2022/12/22 08:13:06;;;;;;;92.70;42.67;;;4.40;99.90;;;;;;4410173;28;658674;-70
2022/12/22 08:15:54;;;;;;;73.50;34.90;;;4.60;99.90;;;;;;4435766;28;658567;-71
2022/12/22 08:18:42;;;;;;;65.50;31.83;;;4.70;99.90;;;;;;4403723;28;658367;-70
2022/12/22 08:21:29;;;;;;;68.57;36.00;;;4.80;99.90;;;;;;4423862;28;657324;-71
2022/12/22 08:24:16;;;;;;;63.85;34.40;;;4.90;99.90;;;;;;4409282;28;657491;-71
2022/12/22 08:27:05;;;;;;;64.93;34.70;;;4.80;99.90;;;;;;4433167;28;658068;-71
2022/12/22 08:29:54;;;;;;;63.27;30.33;;;4.80;99.90;;;;;;4409891;28;658586;-71
2022/12/22 08:32:42;;;;;;;76.10;35.17;;;4.70;99.90;;;;;;4414718;28;657743;-70
2022/12/22 08:35:29;;;;;;;88.07;39.00;;;4.80;99.90;;;;;;4429630;28;657283;-70
2022/12/22 08:38:17;;;;;;;74.33;35.57;;;4.80;99.90;;;;;;4407204;28;657877;-71
2022/12/22 08:41:04;;;;;;;64.00;31.50;;;4.80;99.90;;;;;;4421275;28;658153;-70
2022/12/22 08:43:51;;;;;;;61.23;30.43;;;4.90;99.90;;;;;;4409627;28;657612;-71
2022/12/22 08:46:38;;;;;;;53.87;26.43;;;5.10;99.90;;;;;;4427269;28;658372;-70
2022/12/22 08:49:27;;;;;;;59.33;28.67;;;5.30;99.90;;;;;;4406624;28;657837;-71
2022/12/22 08:52:15;;;;;;;67.07;30.80;;;5.60;99.90;;;;;;4422165;28;657611;-71
2022/12/22 08:55:02;;;;;;;56.67;28.27;;;5.90;99.90;;;;;;4427329;28;658065;-71
2022/12/22 08:57:49;;;;;;;58.67;30.27;;;6.20;99.90;;;;;;4377195;28;657192;-70
2022/12/22 09:00:37;;;;;;;53.80;28.03;;;6.70;99.90;;;;;;4349722;28;658061;-71
2022/12/22 09:03:24;;;;;;;42.87;24.00;;;7.20;99.90;;;;;;4454507;28;657222;-71
2022/12/22 09:06:12;;;;;;;53.57;28.33;;;7.50;99.90;;;;;;4424740;28;657718;-71
2022/12/22 09:09:01;;;;;;;39.90;20.67;;;7.80;99.90;;;;;;4446730;28;657238;-71
2022/12/22 09:11:48;;;;;;;44.93;23.73;;;8.50;99.90;;;;;;4364948;28;658126;-71
2022/12/22 09:14:36;;;;;;;40.27;21.23;;;8.90;99.90;;;;;;4386159;28;658122;-71
2022/12/22 09:17:23;;;;;;;37.17;20.17;;;9.30;99.90;;;;;;4451607;28;657740;-71
2022/12/22 09:20:11;;;;;;;37.53;20.27;;;9.60;99.90;;;;;;4387734;28;657636;-71
2022/12/22 09:22:59;;;;;;;33.47;17.77;;;9.90;99.90;;;;;;4371997;28;658308;-71
2022/12/22 09:25:47;;;;;;;29.13;15.87;;;9.50;99.90;;;;;;4347335;28;657700;-71
2022/12/22 09:28:34;;;;;;;26.07;14.80;;;8.90;99.90;;;;;;4374026;28;657096;-70
2022/12/22 09:31:21;;;;;;;27.77;14.50;;;8.40;99.90;;;;;;4364748;27;657898;-70
2022/12/22 09:34:09;;;;;;;27.00;14.67;;;8.10;99.90;;;;;;4454361;27;657376;-70
2022/12/22 09:36:56;;;;;;;26.40;14.67;;;7.70;99.90;;;;;;4429932;27;657456;-71
2022/12/22 09:39:45;;;;;;;28.13;14.53;;;7.30;99.90;;;;;;4453827;28;658892;-71
2022/12/22 09:42:33;;;;;;;30.17;15.60;;;7.10;99.90;;;;;;4426972;28;658156;-70
2022/12/22 09:45:20;;;;;;;31.67;16.43;;;6.90;99.90;;;;;;4426320;28;657747;-70
2022/12/22 09:48:08;;;;;;;34.47;17.90;;;6.50;99.90;;;;;;4442997;28;658635;-71
2022/12/22 09:50:56;;;;;;;33.77;18.83;;;6.40;99.90;;;;;;4426385;27;658676;-70
2022/12/22 09:53:43;;;;;;;38.70;19.63;;;6.40;99.90;;;;;;4367546;28;658470;-70
2022/12/22 09:56:32;;;;;;;43.38;22.02;;;6.40;99.90;;;;;;4355091;28;657698;-71
2022/12/22 09:59:20;;;;;;;58.57;30.40;;;6.60;99.90;;;;;;4450848;27;657301;-70
2022/12/22 10:02:20;;;;;;;123.57;55.60;;;6.90;99.90;;;;;;4356323;28;657412;-71
2022/12/22 10:05:16;;;;;;;72.63;37.30;;;7.30;99.90;;;;;;4340909;27;658921;-71
2022/12/22 10:08:10;;;;;;;51.37;27.60;;;7.70;99.90;;;;;;4336611;28;657853;-71
2022/12/22 10:10:57;;;;;;;39.07;20.63;;;8.20;99.90;;;;;;4367065;28;657593;-71
2022/12/22 10:13:45;;;;;;;36.23;20.07;;;9.20;99.90;;;;;;4447560;28;657362;-72
2022/12/22 10:16:33;;;;;;;32.17;16.93;;;10.40;99.90;;;;;;4408142;27;658035;-72
2022/12/22 10:19:21;;;;;;;28.33;14.47;;;11.80;99.90;;;;;;4354357;28;658401;-72
2022/12/22 10:22:18;;;;;;;28.43;15.73;;;13.20;95.60;;;;;;4447239;27;659325;-72
2022/12/22 10:25:07;;;;;;;29.97;15.90;;;14.30;88.70;;;;;;4410851;27;658624;-72
2022/12/22 10:27:55;;;;;;;31.37;18.53;;;15.50;79.10;;;;;;4373330;28;660692;-72
2022/12/22 10:30:43;;;;;;;25.50;15.77;;;15.70;72.40;;;;;;4342068;28;659411;-73
2022/12/22 10:33:33;;;;;;;33.05;18.30;;;16.50;69.80;;;;;;4341506;28;660095;-72
2022/12/22 10:36:23;;;;;;;34.22;18.40;;;17.30;65.60;;;;;;4342275;28;659123;-72
2022/12/22 10:39:10;;;;;;;35.83;18.35;;;17.70;62.50;;;;;;4351039;28;658997;-73
2022/12/22 10:42:00;;;;;;;28.73;16.33;;;17.80;60.60;;;;;;4375312;28;660006;-73
2022/12/22 10:44:48;;;;;;;29.50;17.75;;;18.00;57.70;;;;;;4351033;28;658622;-72
2022/12/22 10:47:37;;;;;;;28.67;17.05;;;18.30;58.40;;;;;;4346846;28;658949;-73
2022/12/22 10:50:24;;;;;;;24.88;14.60;;;18.30;56.10;;;;;;4445329;27;658464;-72
2022/12/22 10:53:11;;;;;;;22.27;13.13;;;18.60;56.00;;;;;;4438400;27;658969;-72
2022/12/22 10:56:05;;;;;;;25.60;16.65;;;18.10;57.50;;;;;;4370443;28;659345;-73
2022/12/22 10:58:53;;;;;;;24.73;15.45;;;18.20;56.40;;;;;;4409632;27;659449;-73
2022/12/22 11:01:40;;;;;;;19.83;12.65;;;17.50;56.50;;;;;;4349387;28;658361;-72
2022/12/22 11:04:29;;;;;;;23.23;13.93;;;17.80;57.20;;;;;;4451983;28;659029;-73
2022/12/22 11:07:16;;;;;;;21.80;13.68;;;16.70;57.70;;;;;;4348257;28;658963;-73
2022/12/22 11:10:12;;;;;;;21.50;12.95;;;17.10;58.80;;;;;;4451470;28;660540;-73
2022/12/22 11:13:23;;;;;;;21.75;13.27;;;15.60;61.00;;;;;;4422239;28;658804;-72
2022/12/22 11:16:14;;;;;;;23.98;12.90;;;15.40;62.50;;;;;;4374530;28;658440;-72
2022/12/22 11:19:08;;;;;;;24.40;14.10;;;15.30;61.90;;;;;;4389319;28;659800;-72
2022/12/22 11:21:59;;;;;;;22.80;13.60;;;13.80;69.40;;;;;;4383796;27;659055;-73
2022/12/22 11:24:51;;;;;;;25.13;14.00;;;13.20;73.30;;;;;;4405241;27;658999;-73
2022/12/22 11:27:41;;;;;;;24.00;13.87;;;14.40;72.90;;;;;;4422666;28;659101;-72
2022/12/22 11:30:33;;;;;;;26.63;15.07;;;15.10;68.70;;;;;;4347364;28;659584;-73
2022/12/22 11:33:26;;;;;;;26.43;15.47;;;15.00;67.90;;;;;;4356687;28;658400;-72
2022/12/22 11:36:18;;;;;;;21.97;12.60;;;14.80;68.70;;;;;;4354373;28;659359;-72
2022/12/22 11:39:12;;;;;;;25.90;13.50;;;15.10;67.70;;;;;;4336358;28;659017;-72
2022/12/22 11:42:02;;;;;;;23.87;13.73;;;14.30;67.10;;;;;;4356400;28;658305;-72
2022/12/22 11:44:54;;;;;;;24.53;12.40;;;13.10;76.10;;;;;;4379596;28;658387;-71
2022/12/22 11:47:44;;;;;;;22.17;12.43;;;12.70;78.60;;;;;;4399725;28;658595;-72
2022/12/22 11:50:37;;;;;;;27.97;13.80;;;12.10;91.30;;;;;;4424490;27;658905;-72
2022/12/22 11:53:41;;;;;;;28.87;14.77;;;11.40;93.30;;;;;;4421875;28;658490;-71
2022/12/22 11:56:33;;;;;;;32.07;17.43;;;12.50;93.90;;;;;;4401256;28;658789;-71
2022/12/22 11:59:31;;;;;;;32.30;17.67;;;13.40;87.00;;;;;;4325556;28;658367;-71
2022/12/22 12:02:39;;;;;;;30.60;17.43;;;14.40;80.40;;;;;;4343398;28;659245;-71
2022/12/22 12:05:43;;;;;;;30.63;16.50;;;15.20;73.90;;;;;;4352306;28;659181;-71
2022/12/22 12:08:35;;;;;;;42.17;19.77;;;14.90;72.60;;;;;;4343554;28;658606;-72
2022/12/22 12:11:26;;;;;;;34.17;19.80;;;14.70;73.20;;;;;;4347350;28;658903;-70
2022/12/22 12:14:20;;;;;;;37.80;20.47;;;13.00;78.90;;;;;;4341679;28;658853;-70
2022/12/22 12:17:12;;;;;;;29.50;16.77;;;12.30;84.60;;;;;;4309449;28;659379;-69
2022/12/22 12:20:18;;;;;;;34.83;17.67;;;11.70;90.80;;;;;;4415384;27;658548;-70
2022/12/22 12:23:13;;;;;;;27.88;14.73;;;11.40;91.60;;;;;;4325873;28;658655;-70
2022/12/22 12:26:03;;;;;;;28.03;15.20;;;10.00;99.90;;;;;;4321417;28;658621;-70
2022/12/22 12:28:56;;;;;;;27.33;14.87;;;9.20;99.90;;;;;;4362726;28;659002;-70
2022/12/22 12:31:46;;;;;;;41.73;21.40;;;8.90;99.90;;;;;;4434870;28;657605;-70
2022/12/22 12:34:36;;;;;;;39.55;19.30;;;8.80;99.90;;;;;;4406088;28;658016;-71
2022/12/22 12:37:27;;;;;;;36.10;17.60;;;10.60;99.90;;;;;;4423294;28;658612;-72
2022/12/22 12:40:26;;;;;;;30.73;16.77;;;12.50;99.90;;;;;;4444102;28;659177;-73
2022/12/22 12:43:13;;;;;;;30.63;15.07;;;13.50;92.80;;;;;;4424386;28;658926;-72
2022/12/22 12:46:00;;;;;;;25.90;15.20;;;14.90;81.30;;;;;;4430368;28;659109;-72
2022/12/22 12:48:49;;;;;;;25.73;13.90;;;15.00;77.40;;;;;;4447552;28;659348;-73
2022/12/22 12:51:47;;;;;;;27.57;14.10;;;15.30;73.30;;;;;;4428707;28;658949;-71
2022/12/22 12:54:37;;;;;;;26.93;14.13;;;13.50;79.00;;;;;;4406534;28;659156;-72
2022/12/22 12:57:26;;;;;;;25.40;13.93;;;13.10;81.60;;;;;;4410437;28;659187;-72
2022/12/22 13:00:41;;;;;;;26.33;14.80;;;11.90;87.60;;;;;;4424762;28;658618;-71
2022/12/22 13:03:39;;;;;;;29.57;14.37;;;10.40;99.30;;;;;;4420999;27;658410;-72
2022/12/22 13:06:49;;;;;;;26.07;14.23;;;9.80;99.90;;;;;;4395135;27;658995;-71
2022/12/22 13:09:36;;;;;;;30.70;15.00;;;9.50;99.90;;;;;;4403199;27;658517;-71
2022/12/22 13:12:33;;;;;;;27.17;13.33;;;9.80;99.90;;;;;;4447050;27;657342;-72
2022/12/22 13:15:31;;;;;;;24.63;13.33;;;10.80;99.90;;;;;;4408589;27;657664;-71
2022/12/22 13:18:40;;;;;;;25.93;13.50;;;10.90;99.90;;;;;;4423884;27;659379;-71
2022/12/22 13:21:37;;;;;;;26.07;13.77;;;10.90;99.90;;;;;;4404175;27;659201;-72
2022/12/22 13:24:28;;;;;;;26.70;13.93;;;10.40;99.90;;;;;;4434224;27;658419;-71
2022/12/22 13:27:15;;;;;;;25.57;13.50;;;9.70;99.90;;;;;;4401867;27;659263;-71
2022/12/22 13:30:03;;;;;;;26.90;12.33;;;9.20;99.90;;;;;;4447464;27;658385;-71
2022/12/22 13:32:50;;;;;;;26.43;12.83;;;9.00;99.90;;;;;;4427391;27;657888;-70
2022/12/22 13:35:38;;;;;;;24.97;12.97;;;8.60;99.90;;;;;;4446064;27;659055;-70
2022/12/22 13:38:29;;;;;;;26.27;13.60;;;9.10;99.90;;;;;;4425652;28;657938;-72
2022/12/22 13:41:19;;;;;;;29.57;14.47;;;8.90;99.90;;;;;;4435781;27;657720;-70
2022/12/22 13:44:09;;;;;;;28.07;14.23;;;8.50;99.90;;;;;;4424849;28;658114;-71
2022/12/22 13:46:56;;;;;;;28.93;14.10;;;8.20;99.90;;;;;;4426392;28;657504;-71
2022/12/22 13:49:43;;;;;;;34.70;15.90;;;7.80;99.90;;;;;;4449033;27;658194;-69
2022/12/22 13:52:31;;;;;;;35.60;16.90;;;7.60;99.90;;;;;;4418674;28;658547;-69
2022/12/22 13:55:20;;;;;;;36.50;15.50;;;7.40;99.90;;;;;;4432558;28;657251;-70
2022/12/22 13:58:22;;;;;;;42.17;19.73;;;7.20;99.90;;;;;;4415668;28;658094;-70
2022/12/22 14:01:17;;;;;;;37.77;18.13;;;6.90;99.90;;;;;;4409673;28;657396;-70
2022/12/22 14:04:06;;;;;;;48.90;20.63;;;6.80;99.90;;;;;;4407247;28;657688;-69
2022/12/22 14:06:54;;;;;;;40.07;19.20;;;6.70;99.90;;;;;;4406761;28;658865;-69
2022/12/22 14:09:43;;;;;;;42.67;20.53;;;6.80;99.90;;;;;;4414230;28;657376;-69
2022/12/22 14:12:31;;;;;;;40.50;20.17;;;6.60;99.90;;;;;;4409785;28;658547;-70
2022/12/22 14:15:20;;;;;;;41.50;20.90;;;6.50;99.90;;;;;;4372925;28;657523;-69
2022/12/22 14:18:07;;;;;;;46.43;19.23;;;6.40;99.90;;;;;;4410111;28;657951;-69
2022/12/22 14:20:54;;;;;;;50.00;24.23;;;6.00;99.90;;;;;;4429474;28;657084;-69
2022/12/22 14:23:42;;;;;;;50.97;23.30;;;6.10;99.90;;;;;;4415237;28;657748;-69
2022/12/22 14:26:29;;;;;;;49.80;22.63;;;5.90;99.90;;;;;;4436378;28;657281;-69
2022/12/22 14:29:17;;;;;;;54.67;23.47;;;5.50;99.90;;;;;;4411900;28;657469;-69
2022/12/22 14:32:06;;;;;;;42.73;20.90;;;5.50;99.90;;;;;;4425915;28;658495;-69
2022/12/22 14:34:54;;;;;;;52.40;25.73;;;4.90;99.90;;;;;;4407706;28;657813;-69
2022/12/22 14:37:41;;;;;;;50.10;23.95;;;5.00;99.90;;;;;;4369885;28;657517;-69
2022/12/22 14:40:30;;;;;;;59.10;27.13;;;5.00;99.90;;;;;;4421170;28;658543;-69
2022/12/22 14:43:28;;;;;;;62.37;28.47;;;4.90;99.90;;;;;;4402763;28;658723;-69
2022/12/22 14:46:15;;;;;;;66.17;31.47;;;5.00;99.90;;;;;;4412625;28;657988;-69
2022/12/22 14:49:04;;;;;;;67.40;33.00;;;5.10;99.90;;;;;;4430004;28;659552;-69
2022/12/22 14:51:54;;;;;;;66.43;30.87;;;5.10;99.90;;;;;;4418159;28;657978;-69
2022/12/22 14:54:45;;;;;;;67.07;31.27;;;5.00;99.90;;;;;;4339028;28;658131;-70
2022/12/22 14:57:35;;;;;;;70.83;33.83;;;5.00;99.90;;;;;;4429404;28;658878;-70
2022/12/22 15:00:31;;;;;;;69.47;32.63;;;4.90;99.90;;;;;;4375475;28;657299;-69
2022/12/22 15:03:30;;;;;;;76.73;35.03;;;5.00;99.90;;;;;;4417628;28;657706;-69
2022/12/22 15:06:34;;;;;;;73.07;34.93;;;4.90;99.90;;;;;;4398559;27;657900;-69
2022/12/22 15:09:26;;;;;;;76.07;33.77;;;4.90;99.90;;;;;;4386728;28;657664;-68
2022/12/22 15:12:14;;;;;;;73.83;36.10;;;5.00;99.90;;;;;;4425302;28;658418;-69
2022/12/22 15:15:01;;;;;;;72.03;34.57;;;5.00;99.90;;;;;;4421020;28;658704;-69
2022/12/22 15:17:51;;;;;;;67.93;32.60;;;5.00;99.90;;;;;;4435194;28;657877;-69
2022/12/22 15:20:38;;;;;;;66.43;31.93;;;5.00;99.90;;;;;;4428856;28;658725;-69
2022/12/22 15:23:27;;;;;;;63.40;31.47;;;5.00;99.90;;;;;;4416876;28;657447;-69
2022/12/22 15:26:15;;;;;;;64.47;30.50;;;4.80;99.90;;;;;;4439944;28;657503;-69
2022/12/22 15:29:02;;;;;;;63.43;29.90;;;4.70;99.90;;;;;;4397804;28;658170;-69
2022/12/22 15:31:49;;;;;;;62.97;30.73;;;4.50;99.90;;;;;;4443074;28;657844;-69
2022/12/22 15:34:36;;;;;;;62.70;28.87;;;4.50;99.90;;;;;;4424115;28;657641;-69
2022/12/22 15:37:24;;;;;;;62.50;30.67;;;4.40;99.90;;;;;;4439492;28;657664;-69
2022/12/22 15:40:21;;;;;;;59.87;30.07;;;4.40;99.90;;;;;;4425171;28;657281;-70
2022/12/22 15:43:08;;;;;;;65.33;29.57;;;4.40;99.90;;;;;;4414168;28;657622;-69
2022/12/22 15:45:55;;;;;;;61.63;29.00;;;4.40;99.90;;;;;;4432644;28;657295;-69
2022/12/22 15:48:42;;;;;;;63.10;30.57;;;4.00;99.90;;;;;;4359592;28;657929;-69
2022/12/22 15:51:30;;;;;;;65.47;32.37;;;4.00;99.90;;;;;;4440039;28;657499;-69
2022/12/22 15:54:18;;;;;;;53.07;26.17;;;4.00;99.90;;;;;;4445755;28;657223;-69
2022/12/22 15:57:09;;;;;;;62.50;27.57;;;3.80;99.90;;;;;;4346247;28;658347;-69
2022/12/22 15:59:57;;;;;;;75.93;35.47;;;3.70;99.90;;;;;;4335712;28;657495;-69
2022/12/22 16:02:44;;;;;;;66.80;31.27;;;3.90;99.90;;;;;;4417575;28;657046;-70
2022/12/22 16:05:31;;;;;;;64.57;29.30;;;3.90;99.90;;;;;;4422854;28;657383;-69
2022/12/22 16:08:27;;;;;;;61.55;26.70;;;3.90;99.90;;;;;;4441464;28;658072;-69
2022/12/22 16:11:14;;;;;;;52.07;25.40;;;4.20;99.90;;;;;;4419300;28;657523;-68
2022/12/22 16:14:03;;;;;;;54.65;26.10;;;4.20;99.90;;;;;;4430985;28;657458;-69
2022/12/22 16:16:50;;;;;;;53.93;26.03;;;4.30;99.90;;;;;;4422005;28;658069;-68
2022/12/22 16:19:37;;;;;;;45.90;21.33;;;4.20;99.90;;;;;;4363026;28;658924;-69
2022/12/22 16:22:29;;;;;;;45.43;20.73;;;4.20;99.90;;;;;;4398493;28;657507;-69
2022/12/22 16:25:17;;;;;;;40.23;18.80;;;4.10;99.90;;;;;;4380076;28;657395;-70
2022/12/22 16:28:05;;;;;;;45.67;21.47;;;4.10;99.90;;;;;;4386663;28;657390;-72
2022/12/22 16:30:54;;;;;;;45.27;20.93;;;4.10;99.90;;;;;;4450718;28;656986;-71
2022/12/22 16:33:41;;;;;;;39.50;18.93;;;4.00;99.90;;;;;;4423060;28;657487;-72
2022/12/22 16:36:29;;;;;;;40.13;18.97;;;4.10;99.90;;;;;;4444362;28;658154;-71
2022/12/22 16:39:16;;;;;;;39.27;18.23;;;4.20;99.90;;;;;;4421404;28;657546;-72
2022/12/22 16:42:03;;;;;;;36.70;16.30;;;4.10;99.90;;;;;;4428736;28;659097;-72
2022/12/22 16:44:50;;;;;;;40.60;17.23;;;4.10;99.90;;;;;;4428609;28;657519;-72
2022/12/22 16:47:39;;;;;;;51.80;22.40;;;4.20;99.90;;;;;;4369608;28;658442;-72
2022/12/22 16:50:31;;;;;;;64.87;29.07;;;4.40;99.90;;;;;;4362973;27;657446;-72
2022/12/22 16:53:18;;;;;;;62.83;27.77;;;4.60;99.90;;;;;;4341602;28;657803;-72
2022/12/22 16:56:06;;;;;;;51.73;23.60;;;4.50;99.90;;;;;;4345248;28;657785;-72
2022/12/22 16:58:53;;;;;;;50.13;22.60;;;4.50;99.90;;;;;;4369065;28;657981;-73
2022/12/22 17:01:42;;;;;;;65.70;28.57;;;4.20;99.90;;;;;;4338658;28;657518;-71
2022/12/22 17:04:32;;;;;;;64.00;28.20;;;4.30;99.90;;;;;;4363727;28;657956;-72
2022/12/22 17:07:19;;;;;;;63.55;29.50;;;4.20;99.90;;;;;;4341336;28;657349;-71
2022/12/22 17:10:14;;;;;;;54.93;25.03;;;4.10;99.90;;;;;;4344755;28;658302;-73
2022/12/22 17:13:01;;;;;;;57.13;26.57;;;4.10;99.90;;;;;;4356930;28;657933;-73
2022/12/22 17:15:48;;;;;;;60.13;27.07;;;3.90;99.90;;;;;;4365544;28;658643;-73
2022/12/22 17:18:35;;;;;;;69.10;28.77;;;4.00;99.90;;;;;;4438774;28;657179;-72
2022/12/22 17:21:24;;;;;;;62.60;26.83;;;4.00;99.90;;;;;;4373317;28;657957;-73
2022/12/22 17:24:12;;;;;;;65.30;29.53;;;4.00;99.90;;;;;;4365562;28;657230;-72
2022/12/22 17:27:03;;;;;;;72.13;33.67;;;4.00;99.90;;;;;;4399313;28;657540;-72
2022/12/22 17:29:51;;;;;;;73.00;34.13;;;4.10;99.90;;;;;;4407267;28;657611;-72
2022/12/22 17:32:38;;;;;;;88.80;36.67;;;4.10;99.90;;;;;;4381088;28;657900;-71
2022/12/22 17:35:27;;;;;;;79.45;35.20;;;4.10;99.90;;;;;;4413901;28;657604;-71
2022/12/22 17:38:16;;;;;;;77.20;35.23;;;4.10;99.90;;;;;;4365058;28;657825;-72
2022/12/22 17:41:04;;;;;;;87.83;38.07;;;4.20;99.90;;;;;;4350045;28;657547;-72
2022/12/22 17:43:51;;;;;;;82.07;38.23;;;4.20;99.90;;;;;;4358445;28;657298;-72
2022/12/22 17:46:38;;;;;;;81.10;36.67;;;4.10;99.90;;;;;;4399782;28;658331;-72
2022/12/22 17:49:25;;;;;;;90.50;38.47;;;4.20;99.90;;;;;;4432348;27;657714;-72
2022/12/22 17:52:17;;;;;;;86.63;38.30;;;4.20;99.90;;;;;;4442438;28;658339;-72